Time;durP1;ratioP1;P1;durP2;ratioP2;P2;SDS_P1;SDS_P2;PMS_P1;PMS_P2;Temp;Humidity;BMP_temperature;BMP_pressure;BME280_temperature;BME280_humidity;BME280_pressure;Samples;Min_cycle;Max_cycle;Signal;HPM_P1;HPM_P2
2022/07/03 00:02:04;;;;;;;26.80;3.78;;;;;;;25.15;49.56;99894.19;7315726;19;128955;-38
2022/07/03 00:04:30;;;;;;;14.70;2.67;;;;;;;25.12;49.58;99887.41;7314855;19;129259;-38
2022/07/03 00:06:55;;;;;;;30.80;3.80;;;;;;;25.16;49.94;99885.28;7315780;19;130137;-38
2022/07/03 00:09:21;;;;;;;45.10;4.43;;;;;;;25.12;49.88;99876.88;7316130;19;128935;-38
2022/07/03 00:11:46;;;;;;;49.67;5.30;;;;;;;25.16;49.43;99882.66;7310116;19;129641;-38
2022/07/03 00:14:12;;;;;;;23.13;3.30;;;;;;;25.15;50.59;99881.03;7314396;19;129452;-38
2022/07/03 00:16:38;;;;;;;19.87;2.67;;;;;;;25.16;50.76;99880.88;7317510;19;129036;-38
2022/07/03 00:19:03;;;;;;;22.87;3.30;;;;;;;25.16;49.93;99883.50;7315738;19;129657;-38
2022/07/03 00:21:41;;;;;;;20.93;3.00;;;;;;;25.14;51.18;99880.19;7316355;19;129143;-38
2022/07/03 00:24:13;;;;;;;17.75;2.42;;;;;;;25.12;49.66;99886.59;7316064;19;129368;-37
2022/07/03 00:26:43;;;;;;;22.63;3.05;;;;;;;25.11;50.94;99879.66;7315782;19;129164;-38
2022/07/03 00:29:09;;;;;;;21.90;2.92;;;;;;;25.13;50.04;99889.06;7311561;19;130093;-38
2022/07/03 00:31:35;;;;;;;19.40;2.72;;;;;;;25.04;49.87;99871.56;7315986;19;129713;-37
2022/07/03 00:34:01;;;;;;;17.13;2.70;;;;;;;25.13;50.54;99877.72;7315744;19;129818;-37
2022/07/03 00:36:32;;;;;;;9.90;1.95;;;;;;;25.12;51.05;99878.72;7316905;19;129225;-38
2022/07/03 00:38:58;;;;;;;29.80;3.80;;;;;;;25.13;50.36;99877.72;7315613;19;129178;-38
2022/07/03 00:41:27;;;;;;;25.63;3.33;;;;;;;25.13;51.17;99877.72;7314656;19;129454;-38
2022/07/03 00:43:52;;;;;;;24.55;3.25;;;;;;;25.06;49.69;99860.88;7316542;19;129213;-38
2022/07/03 00:46:22;;;;;;;17.03;2.67;;;;;;;25.13;51.63;99872.44;7316085;19;130088;-37
2022/07/03 00:48:50;;;;;;;22.35;3.05;;;;;;;25.04;49.96;99861.03;7315188;19;130384;-37
2022/07/03 00:51:20;;;;;;;18.77;2.80;;;;;;;25.12;51.45;99876.06;7312113;19;128834;-38
2022/07/03 00:53:49;;;;;;;37.47;4.22;;;;;;;25.12;51.39;99876.06;7314989;19;128908;-38
2022/07/03 00:56:16;;;;;;;22.02;3.05;;;;;;;25.12;50.04;99870.81;7314793;19;129121;-38
2022/07/03 00:58:41;;;;;;;;;;;;;;;25.20;52.22;99865.59;7316430;19;130475;-38
2022/07/03 01:01:09;;;;;;;35.08;3.72;;;;;;;25.16;50.49;99869.50;7314144;19;129979;-38
2022/07/03 01:03:43;;;;;;;15.00;2.63;;;;;;;25.10;51.37;99852.56;7312826;19;128994;-38
2022/07/03 01:06:13;;;;;;;43.53;5.32;;;;;;;25.13;51.16;99869.81;7300726;19;131279;-38
2022/07/03 01:08:50;;;;;;;53.67;6.43;;;;;;;25.13;52.25;99857.50;7300823;19;130848;-38
2022/07/03 01:11:32;;;;;;;26.05;3.15;;;;;;;25.13;52.21;99848.78;7300680;19;130431;-38
2022/07/03 01:14:35;;;;;;;26.23;3.50;;;;;;;25.14;52.04;99847.81;7311918;19;129854;-38
2022/07/03 01:17:25;;;;;;;25.38;3.22;;;;;;;25.13;51.70;99856.66;7314948;19;129834;-38
2022/07/03 01:20:00;;;;;;;32.13;3.63;;;;;;;25.12;51.44;99849.75;7309227;19;129916;-38
2022/07/03 01:22:44;;;;;;;15.98;2.20;;;;;;;25.03;50.29;99832.25;7312818;19;129076;-37
2022/07/03 01:25:25;;;;;;;21.83;2.88;;;;;;;25.12;52.37;99845.31;7315128;19;129012;-38
2022/07/03 01:27:57;;;;;;;19.27;2.67;;;;;;;25.03;51.16;99821.75;7315527;19;130126;-38
2022/07/03 01:30:24;;;;;;;20.90;2.95;;;;;;;25.11;50.09;99830.50;7313490;19;131005;-38
2022/07/03 01:33:12;;;;;;;25.02;3.10;;;;;;;25.02;52.62;99820.94;7313580;19;128949;-37
2022/07/03 01:35:46;;;;;;;32.42;3.85;;;;;;;25.11;50.93;99832.31;7312950;19;130872;-38
2022/07/03 01:38:13;;;;;;;37.38;4.43;;;;;;;25.10;51.26;99826.25;7314353;19;129893;-38
2022/07/03 01:40:41;;;;;;;21.30;2.80;;;;;;;25.10;50.50;99830.66;7312783;19;130340;-38
2022/07/03 01:43:11;;;;;;;28.95;3.65;;;;;;;25.09;50.40;99818.50;7312032;19;129608;-38
2022/07/03 01:45:43;;;;;;;19.45;2.55;;;;;;;25.11;51.25;99816.53;7315175;19;129084;-37
2022/07/03 01:48:10;;;;;;;26.10;3.45;;;;;;;25.10;50.63;99822.78;7313647;19;130906;-38
2022/07/03 01:50:37;;;;;;;21.35;2.70;;;;;;;25.10;50.27;99822.78;7313320;19;129598;-38
2022/07/03 01:53:05;;;;;;;37.10;4.13;;;;;;;25.10;50.90;99814.88;7311273;19;129208;-38
2022/07/03 01:55:32;;;;;;;14.95;2.42;;;;;;;25.10;51.32;99818.34;7311331;19;129359;-38
2022/07/03 01:57:58;;;;;;;30.25;3.80;;;;;;;25.09;50.36;99815.88;7311191;19;131097;-38
2022/07/03 02:00:26;;;;;;;27.93;3.53;;;;;;;25.03;50.62;99808.59;7311432;19;130852;-38
2022/07/03 02:02:57;;;;;;;23.75;2.88;;;;;;;25.09;52.30;99818.50;7310386;19;130852;-38
2022/07/03 02:05:35;;;;;;;33.28;3.85;;;;;;;25.10;51.97;99820.16;7313707;19;129226;-38
2022/07/03 02:08:10;;;;;;;17.17;2.45;;;;;;;25.09;50.19;99818.50;7309807;19;129395;-37
2022/07/03 02:10:46;;;;;;;17.75;2.67;;;;;;;25.07;52.17;99812.56;7312596;19;129163;-38
2022/07/03 02:13:19;;;;;;;29.88;3.63;;;;;;;25.08;51.73;99817.66;7307187;19;128955;-37
2022/07/03 02:15:49;;;;;;;16.70;2.40;;;;;;;24.99;51.77;99799.38;7314477;19;129329;-37
2022/07/03 02:18:21;;;;;;;38.17;4.07;;;;;;;25.08;51.69;99808.94;7312580;19;130112;-38
2022/07/03 02:20:54;;;;;;;17.50;2.45;;;;;;;25.08;52.42;99816.84;7310744;19;129224;-38
2022/07/03 02:23:26;;;;;;;33.50;3.85;;;;;;;25.09;52.24;99807.97;7312673;19;129331;-38
2022/07/03 02:25:55;;;;;;;27.88;3.53;;;;;;;25.06;52.09;99808.28;7312138;19;129777;-38
2022/07/03 02:28:32;;;;;;;17.83;2.28;;;;;;;25.08;51.87;99819.47;7313126;19;130348;-38
2022/07/03 02:31:05;;;;;;;14.55;2.42;;;;;;;25.08;52.33;99807.16;7311378;19;129956;-38
2022/07/03 02:33:34;;;;;;;21.30;2.92;;;;;;;25.09;51.26;99815.88;7314211;19;129826;-38
2022/07/03 02:36:00;;;;;;;21.77;3.17;;;;;;;25.09;50.38;99807.97;7313146;19;128895;-37
2022/07/03 02:38:27;;;;;;;19.30;2.80;;;;;;;25.09;50.74;99807.97;7313023;19;130197;-38
2022/07/03 02:41:12;;;;;;;14.00;2.35;;;;;;;25.09;51.74;99800.09;7311729;19;130445;-38
2022/07/03 02:43:47;;;;;;;15.93;2.50;;;;;;;25.09;51.82;99800.09;7310525;19;130604;-37
2022/07/03 02:49:38;;;;;;;28.08;3.53;;;;;;;25.06;52.84;99795.94;7311389;19;130055;-38
2022/07/03 02:52:09;;;;;;;43.50;5.03;;;;;;;25.08;52.22;99791.38;7309079;19;129677;-38
2022/07/03 02:54:44;;;;;;;24.77;3.10;;;;;;;25.08;52.48;99801.88;7311586;19;128833;-38
2022/07/03 02:57:09;;;;;;;28.30;3.55;;;;;;;25.10;51.28;99804.34;7311440;19;129803;-38
2022/07/03 02:59:57;;;;;;;21.73;2.87;;;;;;;25.01;53.22;99789.50;7311541;19;128960;-38
2022/07/03 03:02:22;;;;;;;22.73;2.80;;;;;;;25.09;50.40;99797.47;7310407;19;130882;-38
2022/07/03 03:05:06;;;;;;;34.60;4.27;;;;;;;25.08;52.70;99806.31;7311619;19;131921;-38
2022/07/03 03:07:59;;;;;;;36.45;3.85;;;;;;;25.08;52.15;99806.31;7304401;19;132320;-37
2022/07/03 03:10:24;;;;;;;53.10;5.88;;;;;;;25.00;50.79;99795.75;7291632;19;130702;-38
2022/07/03 03:13:19;;;;;;;44.50;5.67;;;;;;;25.10;53.34;99799.09;7291502;19;130527;-38
2022/07/03 03:16:13;;;;;;;56.42;6.18;;;;;;;25.11;52.53;99806.84;7293059;19;130108;-38
2022/07/03 03:18:43;;;;;;;34.95;4.07;;;;;;;25.11;51.12;99806.00;7295138;19;129890;-38
2022/07/03 03:21:10;;;;;;;20.70;2.65;;;;;;;25.11;50.59;99806.00;7310205;19;130456;-37
2022/07/03 03:23:48;;;;;;;32.22;4.18;;;;;;;25.09;51.28;99807.97;7309843;19;130383;-38
2022/07/03 03:26:16;;;;;;;15.82;2.22;;;;;;;25.11;51.84;99811.25;7310469;19;130226;-38
2022/07/03 03:28:42;;;;;;;26.92;3.13;;;;;;;25.09;51.41;99808.78;7310118;19;130634;-38
2022/07/03 03:31:09;;;;;;;23.93;3.03;;;;;;;25.10;50.86;99812.25;7310927;19;129994;-37
2022/07/03 03:33:40;;;;;;;24.30;2.92;;;;;;;24.99;52.55;99796.75;7316784;19;130762;-38
2022/07/03 03:36:08;;;;;;;17.63;2.60;;;;;;;25.08;51.15;99808.94;7317615;19;129259;-38
2022/07/03 03:38:34;;;;;;;18.73;2.95;;;;;;;25.08;50.77;99798.41;7316126;19;129170;-38
2022/07/03 03:41:00;;;;;;;26.13;2.87;;;;;;;25.08;50.39;99803.69;7311528;19;130134;-37
2022/07/03 03:43:25;;;;;;;18.20;2.45;;;;;;;25.07;51.52;99810.75;7318038;19;129955;-38
2022/07/03 03:45:51;;;;;;;32.57;3.93;;;;;;;25.07;50.85;99800.22;7316754;19;130115;-38
2022/07/03 03:48:16;;;;;;;14.63;2.20;;;;;;;25.08;51.37;99798.41;7317190;19;128755;-37
2022/07/03 03:50:45;;;;;;;34.73;4.17;;;;;;;25.08;51.51;99795.78;7314298;19;129154;-38
2022/07/03 03:53:12;;;;;;;26.15;3.17;;;;;;;24.98;51.20;99780.13;7315423;19;129204;-38
2022/07/03 03:55:37;;;;;;;21.77;2.85;;;;;;;25.08;51.61;99796.63;7317002;19;129154;-38
2022/07/03 03:58:04;;;;;;;22.07;2.83;;;;;;;25.07;51.35;99788.88;7318350;19;129425;-37
2022/07/03 04:00:30;;;;;;;15.77;2.33;;;;;;;25.08;50.56;99787.91;7315370;19;130092;-38
2022/07/03 04:02:55;;;;;;;31.37;3.87;;;;;;;25.10;51.54;99793.84;7313983;19;129654;-38
2022/07/03 04:05:21;;;;;;;18.50;2.53;;;;;;;25.10;50.74;99793.84;7315879;19;131014;-38
2022/07/03 04:07:46;;;;;;;32.53;3.88;;;;;;;25.11;50.50;99803.38;7314471;19;129402;-38
2022/07/03 04:10:11;;;;;;;25.10;2.77;;;;;;;25.11;51.37;99792.84;7315421;19;129614;-37
2022/07/03 04:12:37;;;;;;;14.97;2.33;;;;;;;25.01;51.20;99778.97;7314266;19;129750;-37
2022/07/03 04:15:03;;;;;;;30.63;3.72;;;;;;;25.06;51.05;99779.34;7316835;19;129399;-38
2022/07/03 04:17:29;;;;;;;19.65;2.72;;;;;;;25.09;50.41;99782.47;7315475;19;131089;-38
2022/07/03 04:19:54;;;;;;;47.40;5.40;;;;;;;25.10;51.45;99778.03;7314731;19;129432;-38
2022/07/03 04:22:20;;;;;;;18.23;2.80;;;;;;;25.01;51.34;99763.19;7309336;19;131326;-38
2022/07/03 04:24:45;;;;;;;17.67;2.28;;;;;;;25.11;50.97;99769.16;7316325;19;129061;-38
2022/07/03 04:27:10;;;;;;;22.27;2.63;;;;;;;25.11;50.94;99769.16;7313711;19;129150;-38
2022/07/03 04:29:36;;;;;;;23.17;2.80;;;;;;;25.10;51.33;99767.53;7315830;19;130521;-37
2022/07/03 04:32:01;;;;;;;32.67;3.80;;;;;;;25.10;51.38;99767.53;7312501;19;129882;-38
2022/07/03 04:34:27;;;;;;;36.77;4.07;;;;;;;25.09;51.30;99771.94;7315392;19;129968;-38
2022/07/03 04:36:53;;;;;;;23.37;3.00;;;;;;;25.11;51.89;99774.41;7314425;19;129507;-38
2022/07/03 04:39:18;;;;;;;19.90;2.60;;;;;;;25.11;51.54;99769.16;7314892;19;130329;-38
2022/07/03 04:41:43;;;;;;;15.67;2.07;;;;;;;25.11;51.09;99769.16;7311366;19;130841;-37
2022/07/03 04:44:09;;;;;;;35.43;4.23;;;;;;;25.02;51.44;99757.81;7313826;19;129627;-37
2022/07/03 04:46:35;;;;;;;17.60;2.40;;;;;;;25.10;51.07;99778.03;7313435;19;129239;-38
2022/07/03 04:49:00;;;;;;;20.63;2.70;;;;;;;25.11;51.35;99766.53;7315164;19;129972;-38
2022/07/03 04:51:26;;;;;;;40.50;4.35;;;;;;;25.10;51.71;99773.63;7311754;19;130743;-38
2022/07/03 04:53:51;;;;;;;16.33;2.10;;;;;;;25.12;50.60;99766.38;7315536;19;129410;-38
2022/07/03 04:56:16;;;;;;;37.70;4.30;;;;;;;25.11;50.56;99769.16;7310903;19;130241;-38
2022/07/03 04:58:42;;;;;;;22.27;2.80;;;;;;;25.05;52.32;99764.53;7313661;19;131448;-38
2022/07/03 05:01:07;;;;;;;31.40;3.57;;;;;;;25.11;51.85;99766.53;7312769;19;131061;-38
2022/07/03 05:03:32;;;;;;;37.13;3.57;;;;;;;25.10;51.30;99763.09;7314278;19;129427;-38
2022/07/03 05:05:58;;;;;;;24.63;3.03;;;;;;;25.12;51.34;99770.81;7312215;19;129305;-37
2022/07/03 05:08:23;;;;;;;40.70;4.33;;;;;;;25.04;50.72;99755.00;7312097;19;130120;-38
2022/07/03 05:10:49;;;;;;;22.00;2.93;;;;;;;25.12;51.91;99765.56;7309148;19;131062;-38
2022/07/03 05:13:14;;;;;;;37.33;4.20;;;;;;;25.11;51.33;99759.47;7310205;19;129146;-38
2022/07/03 05:15:40;;;;;;;27.43;2.93;;;;;;;25.11;51.28;99753.38;7312924;19;129637;-38
2022/07/03 05:18:05;;;;;;;19.33;2.53;;;;;;;25.11;51.34;99756.00;7308651;19;130252;-38
2022/07/03 05:20:31;;;;;;;29.03;3.67;;;;;;;25.11;51.14;99748.13;7308951;19;129352;-38
2022/07/03 05:22:58;;;;;;;30.00;3.63;;;;;;;25.05;52.43;99732.97;7308048;19;130019;-38
2022/07/03 05:25:24;;;;;;;67.65;7.13;;;;;;;25.11;52.08;99737.59;7301223;19;130099;-38
2022/07/03 05:27:50;;;;;;;50.00;5.15;;;;;;;25.12;51.60;99731.34;7297772;19;131151;-38
2022/07/03 05:30:16;;;;;;;33.97;3.80;;;;;;;25.12;52.63;99731.34;7307462;19;131468;-38
2022/07/03 05:32:42;;;;;;;21.58;2.70;;;;;;;25.12;51.71;99739.25;7308973;19;128948;-38
2022/07/03 05:35:08;;;;;;;32.23;3.60;;;;;;;25.11;52.28;99737.59;7309800;19;130314;-37
2022/07/03 05:37:34;;;;;;;30.27;3.60;;;;;;;25.09;51.59;99734.31;7310315;19;130519;-38
2022/07/03 05:39:59;;;;;;;43.13;5.07;;;;;;;25.04;51.95;99723.44;7306640;19;129139;-38
2022/07/03 05:42:25;;;;;;;39.87;4.23;;;;;;;25.13;52.11;99740.88;7312083;19;129508;-38
2022/07/03 05:44:50;;;;;;;27.55;3.00;;;;;;;25.12;52.08;99741.88;7312709;19;130111;-38
2022/07/03 05:47:15;;;;;;;52.10;5.60;;;;;;;25.11;52.38;99740.22;7313469;19;130223;-37
2022/07/03 05:49:41;;;;;;;38.47;4.23;;;;;;;25.12;51.74;99740.06;7306089;19;130458;-37
2022/07/03 05:52:06;;;;;;;44.53;4.93;;;;;;;25.13;52.82;99743.53;7301565;19;130491;-38
2022/07/03 05:54:32;;;;;;;37.70;3.97;;;;;;;25.12;51.47;99752.41;7303388;19;130222;-38
2022/07/03 05:56:57;;;;;;;23.05;2.55;;;;;;;25.13;52.49;99751.41;7312796;19;130914;-38
2022/07/03 05:59:23;;;;;;;17.65;2.75;;;;;;;25.13;53.00;99751.41;7312243;19;129184;-37
2022/07/03 06:01:48;;;;;;;19.58;2.45;;;;;;;25.11;51.89;99748.94;7312438;19;128829;-38
2022/07/03 06:04:14;;;;;;;31.67;3.77;;;;;;;25.11;51.82;99758.63;7310655;19;130027;-38
2022/07/03 06:06:39;;;;;;;26.37;3.23;;;;;;;25.10;51.26;99751.75;7309295;19;129629;-38
2022/07/03 06:09:05;;;;;;;21.55;2.67;;;;;;;25.08;52.51;99753.69;7312355;19;129621;-38
2022/07/03 06:11:31;;;;;;;29.83;3.78;;;;;;;25.07;52.55;99752.84;7310892;19;129256;-38
2022/07/03 06:13:56;;;;;;;40.93;4.43;;;;;;;25.06;52.04;99750.38;7309630;19;129082;-38
2022/07/03 06:16:21;;;;;;;23.10;2.80;;;;;;;25.08;52.51;99756.31;7311033;19;130512;-38
2022/07/03 06:18:47;;;;;;;30.37;3.83;;;;;;;25.08;50.95;99748.44;7308099;19;131707;-37
2022/07/03 06:21:13;;;;;;;26.20;2.90;;;;;;;25.07;51.20;99757.31;7309749;19;129345;-38
2022/07/03 06:23:38;;;;;;;35.30;4.07;;;;;;;25.08;51.79;99745.81;7310438;19;130171;-37
2022/07/03 06:26:04;;;;;;;31.50;3.53;;;;;;;25.11;51.10;99756.00;7309479;19;129440;-38
2022/07/03 06:28:29;;;;;;;17.60;2.50;;;;;;;25.10;51.96;99751.75;7312725;19;129697;-38
2022/07/03 06:30:54;;;;;;;43.43;4.47;;;;;;;25.10;52.12;99743.84;7306841;19;129647;-38
2022/07/03 06:33:20;;;;;;;28.83;3.47;;;;;;;25.10;51.94;99730.69;7308410;19;129158;-38
2022/07/03 06:35:45;;;;;;;27.47;3.47;;;;;;;25.10;52.37;99720.16;7308864;19;129205;-38
2022/07/03 06:38:10;;;;;;;28.13;2.97;;;;;;;25.11;52.07;99721.81;7310043;19;129367;-38
2022/07/03 06:40:36;;;;;;;28.20;3.53;;;;;;;25.11;52.53;99727.06;7312602;19;129173;-38
2022/07/03 06:43:01;;;;;;;45.03;5.00;;;;;;;25.10;52.36;99717.53;7308014;19;130424;-38
2022/07/03 06:45:27;;;;;;;21.23;2.70;;;;;;;25.10;52.08;99723.63;7312710;19;129589;-38
2022/07/03 06:47:52;;;;;;;33.40;4.00;;;;;;;25.11;52.53;99724.44;7308039;19;129494;-38
2022/07/03 06:50:17;;;;;;;24.20;3.23;;;;;;;25.01;52.04;99710.59;7309003;19;129170;-38
2022/07/03 06:52:43;;;;;;;38.92;4.13;;;;;;;24.99;52.16;99707.31;7306343;19;129297;-38
2022/07/03 06:55:08;;;;;;;27.83;3.00;;;;;;;25.09;51.66;99723.78;7309010;19;129410;-37
2022/07/03 06:57:34;;;;;;;27.30;3.63;;;;;;;25.00;52.32;99708.94;7307362;19;130144;-38
2022/07/03 06:59:59;;;;;;;153.73;14.90;;;;;;;25.04;51.64;99715.56;7300688;19;129899;-38
2022/07/03 07:02:24;;;;;;;29.77;3.10;;;;;;;25.11;50.83;99717.38;7287773;19;130744;-38
2022/07/03 07:04:50;;;;;;;14.83;2.23;;;;;;;25.08;50.37;99714.22;7304962;19;130443;-38
2022/07/03 07:07:15;;;;;;;38.08;4.57;;;;;;;25.07;50.48;99716.03;7302536;19;130052;-38
2022/07/03 07:09:41;;;;;;;45.33;5.23;;;;;;;25.03;50.63;99719.16;7305648;19;129139;-37
2022/07/03 07:12:06;;;;;;;60.90;6.63;;;;;;;25.06;49.71;99713.56;7303050;19;130621;-38
2022/07/03 07:14:32;;;;;;;32.03;3.83;;;;;;;25.00;49.80;99708.94;7307575;19;129470;-38
2022/07/03 07:16:57;;;;;;;32.87;4.03;;;;;;;25.02;50.44;99706.97;7308165;19;130738;-38
2022/07/03 07:19:22;;;;;;;33.13;4.22;;;;;;;25.06;49.55;99703.03;7305943;19;130492;-37
2022/07/03 07:21:48;;;;;;;33.45;4.18;;;;;;;25.00;50.69;99693.16;7304539;19;130455;-38
2022/07/03 07:24:13;;;;;;;65.70;6.90;;;;;;;25.09;49.97;99708.00;7306625;19;130129;-38
2022/07/03 07:26:39;;;;;;;44.73;4.87;;;;;;;25.10;49.94;99705.22;7307110;19;130578;-38
2022/07/03 07:29:04;;;;;;;25.03;3.60;;;;;;;25.13;50.06;99704.06;7307979;19;130315;-38
2022/07/03 07:31:29;;;;;;;34.60;3.97;;;;;;;25.12;49.84;99705.06;7301242;19;130915;-38
2022/07/03 07:33:55;;;;;;;51.90;5.95;;;;;;;25.08;50.44;99701.06;7308297;19;129311;-38
2022/07/03 07:36:20;;;;;;;46.25;5.45;;;;;;;25.09;50.64;99700.13;7305966;19;130891;-38
2022/07/03 07:38:46;;;;;;;43.93;5.43;;;;;;;25.09;50.98;99702.75;7304134;19;130136;-38
2022/07/03 07:41:11;;;;;;;27.23;3.27;;;;;;;25.09;50.12;99697.47;7306634;19;130240;-38
2022/07/03 07:43:36;;;;;;;27.40;3.57;;;;;;;25.08;50.45;99695.81;7307520;19;130024;-38
2022/07/03 07:46:02;;;;;;;44.22;5.03;;;;;;;25.10;50.46;99689.44;7306128;19;130371;-38
2022/07/03 07:48:28;;;;;;;45.35;5.07;;;;;;;25.11;50.98;99706.00;7305534;19;129722;-38
2022/07/03 07:50:53;;;;;;;23.10;3.33;;;;;;;25.09;50.49;99702.75;7302051;19;129833;-38
2022/07/03 07:53:19;;;;;;;47.00;5.30;;;;;;;25.08;50.73;99686.13;7304362;19;130034;-38
2022/07/03 07:55:44;;;;;;;38.47;4.43;;;;;;;25.10;50.59;99689.44;7304864;19;131459;-38
2022/07/03 07:58:09;;;;;;;38.00;4.77;;;;;;;25.10;50.37;99689.44;7301600;19;131200;-37
2022/07/03 08:00:35;;;;;;;41.00;4.20;;;;;;;25.10;50.63;99686.78;7301311;19;130249;-37
2022/07/03 08:05:44;;;;;;;37.13;4.25;;;;;;;25.09;51.13;99682.50;7304046;19;129452;-38
2022/07/03 08:08:12;;;;;;;38.70;4.50;;;;;;;25.13;50.85;99672.47;7303105;19;130254;-38
2022/07/03 08:10:46;;;;;;;29.98;3.60;;;;;;;25.12;52.30;99678.75;7303585;19;130763;-37
2022/07/03 08:13:13;;;;;;;29.70;3.63;;;;;;;25.10;51.71;99680.69;7303320;19;129777;-38
2022/07/03 08:15:39;;;;;;;36.85;4.05;;;;;;;25.09;50.98;99681.69;7303634;19;130520;-38
2022/07/03 08:18:05;;;;;;;34.40;4.33;;;;;;;25.10;51.50;99670.19;7305285;19;128983;-38
2022/07/03 08:20:31;;;;;;;67.93;6.97;;;;;;;25.11;51.57;99675.28;7309460;19;130134;-38
2022/07/03 08:22:57;;;;;;;48.87;5.83;;;;;;;25.12;51.09;99678.75;7311790;19;131343;-38
2022/07/03 08:25:24;;;;;;;26.07;3.17;;;;;;;25.10;51.57;99673.63;7311889;19;130559;-38
2022/07/03 08:27:49;;;;;;;27.02;3.58;;;;;;;25.09;50.81;99668.53;7309376;19;130236;-37
2022/07/03 08:30:17;;;;;;;34.10;3.77;;;;;;;25.11;51.69;99666.56;7311502;19;129470;-37
2022/07/03 08:32:44;;;;;;;28.80;3.80;;;;;;;25.13;51.27;99668.06;7310985;19;130824;-38
2022/07/03 08:35:10;;;;;;;25.67;3.13;;;;;;;25.09;51.42;99660.66;7313805;19;132218;-38
2022/07/03 08:37:35;;;;;;;41.80;4.77;;;;;;;25.11;51.25;99663.91;7310961;19;129507;-38
2022/07/03 08:40:02;;;;;;;65.10;6.77;;;;;;;25.12;51.02;99657.69;7309929;19;129140;-38
2022/07/03 08:42:29;;;;;;;37.17;4.30;;;;;;;25.09;51.04;99656.19;7307594;19;130224;-38
2022/07/03 08:44:56;;;;;;;;;;;;;;;25.13;53.81;99661.97;7311829;19;129746;-38
2022/07/03 08:47:23;;;;;;;33.30;3.88;;;;;;;25.11;51.13;99654.22;7309798;19;130628;-38
2022/07/03 08:49:49;;;;;;;35.78;4.20;;;;;;;25.12;50.87;99660.31;7313720;19;131216;-38
2022/07/03 08:52:14;;;;;;;32.50;3.50;;;;;;;25.10;50.65;99654.38;7310815;19;130332;-38
2022/07/03 08:54:40;;;;;;;42.63;4.40;;;;;;;25.11;50.96;99653.41;7308533;19;130877;-38
2022/07/03 08:57:05;;;;;;;39.47;4.53;;;;;;;25.10;50.97;99651.75;7311295;19;129574;-38
2022/07/03 08:59:36;;;;;;;35.33;3.80;;;;;;;25.11;50.82;99648.97;7310343;19;129541;-38
2022/07/03 09:02:04;;;;;;;47.78;5.00;;;;;;;25.11;50.47;99648.13;7307374;19;130279;-38
2022/07/03 09:04:29;;;;;;;18.70;2.60;;;;;;;25.10;50.82;99649.13;7312121;19;130875;-38
2022/07/03 09:06:55;;;;;;;48.40;5.00;;;;;;;25.10;50.37;99641.22;7309407;19;129322;-37
2022/07/03 09:09:21;;;;;;;18.33;2.93;;;;;;;25.11;51.16;99653.41;7312446;19;129453;-37
2022/07/03 09:11:47;;;;;;;50.67;5.40;;;;;;;25.11;51.67;99648.13;7307482;19;129973;-38
2022/07/03 09:14:13;;;;;;;37.53;4.30;;;;;;;25.10;50.97;99646.50;7309138;19;130566;-38
2022/07/03 09:16:38;;;;;;;23.00;2.90;;;;;;;25.09;51.13;99650.13;7312179;19;129516;-38
2022/07/03 09:19:04;;;;;;;40.53;4.27;;;;;;;25.03;51.17;99641.06;7309547;19;129300;-38
2022/07/03 09:21:37;;;;;;;53.42;5.50;;;;;;;25.08;53.53;99645.81;7307716;19;130813;-38
2022/07/03 09:24:05;;;;;;;40.60;4.55;;;;;;;25.10;50.89;99649.97;7310906;19;129850;-38
2022/07/03 09:26:30;;;;;;;41.05;4.57;;;;;;;25.08;51.10;99640.56;7310511;19;129183;-38
2022/07/03 09:28:56;;;;;;;44.47;5.20;;;;;;;25.13;50.71;99643.53;7305341;19;129692;-38
2022/07/03 09:31:24;;;;;;;25.37;3.10;;;;;;;25.08;51.34;99637.94;7310681;19;130490;-37
2022/07/03 09:34:01;;;;;;;16.77;2.38;;;;;;;25.03;53.05;99630.53;7311718;19;131752;-38
2022/07/03 09:36:43;;;;;;;29.92;3.47;;;;;;;25.11;53.87;99643.69;7310993;19;129695;-38
2022/07/03 09:39:16;;;;;;;31.98;3.65;;;;;;;25.09;52.69;99634.34;7311537;19;129459;-38
2022/07/03 09:41:55;;;;;;;33.85;3.90;;;;;;;25.09;54.20;99639.59;7306565;19;129202;-38
2022/07/03 09:44:34;;;;;;;32.85;4.00;;;;;;;25.10;53.37;99641.22;7311485;19;130571;-38
2022/07/03 09:47:15;;;;;;;32.97;3.78;;;;;;;25.09;53.77;99631.72;7311329;19;130015;-38
2022/07/03 09:49:56;;;;;;;22.65;2.95;;;;;;;25.06;53.53;99624.94;7308001;19;129180;-38
2022/07/03 09:52:43;;;;;;;36.90;4.10;;;;;;;25.06;53.07;99624.94;7308422;19;130231;-38
2022/07/03 09:55:09;;;;;;;31.07;3.57;;;;;;;25.09;51.37;99634.34;7309982;19;130635;-38
2022/07/03 09:58:04;;;;;;;43.40;4.53;;;;;;;25.03;51.64;99620.00;7309434;19;130011;-38
2022/07/03 10:00:33;;;;;;;49.35;5.13;;;;;;;25.05;51.54;99627.75;7306328;19;129097;-38
2022/07/03 10:03:05;;;;;;;41.35;4.68;;;;;;;25.06;52.42;99624.94;7307475;19;130347;-38
2022/07/03 10:05:37;;;;;;;21.85;2.83;;;;;;;25.07;51.20;99620.50;7307655;19;130621;-38
2022/07/03 10:08:08;;;;;;;39.67;4.78;;;;;;;24.98;52.43;99600.41;7309133;19;129605;-38
2022/07/03 10:10:35;;;;;;;28.05;3.17;;;;;;;25.04;52.03;99618.22;7308458;19;129339;-37
2022/07/03 10:13:02;;;;;;;33.38;3.55;;;;;;;25.07;51.29;99615.25;7307517;19;129154;-38
2022/07/03 10:15:28;;;;;;;26.38;2.85;;;;;;;25.10;51.38;99620.19;7310206;19;129373;-38
2022/07/03 10:17:56;;;;;;;;;;;;;;;25.10;54.53;99614.94;7310530;19;129156;-38
2022/07/03 10:20:28;;;;;;;16.17;2.42;;;;;;;25.06;52.55;99608.31;7307900;19;129681;-38
2022/07/03 10:22:54;;;;;;;32.75;3.75;;;;;;;25.05;50.86;99610.16;7305419;19;130147;-38
2022/07/03 10:25:20;;;;;;;37.65;3.85;;;;;;;24.97;51.15;99594.38;7308549;19;130306;-38
2022/07/03 10:27:47;;;;;;;36.10;3.87;;;;;;;25.04;51.25;99605.06;7309684;19;130527;-37
2022/07/03 10:30:15;;;;;;;43.20;4.75;;;;;;;25.07;52.22;99604.72;7308369;19;129166;-38
2022/07/03 10:32:43;;;;;;;28.83;3.45;;;;;;;25.09;51.55;99608.03;7306169;19;130146;-38
2022/07/03 10:35:10;;;;;;;43.92;5.03;;;;;;;25.10;50.93;99609.66;7308051;19;129108;-38
2022/07/03 10:37:49;;;;;;;22.20;2.70;;;;;;;25.09;52.89;99613.28;7309441;19;130679;-38
2022/07/03 10:46:12;;;;;;;27.92;2.90;;;;;;;25.02;51.74;99583.34;7309028;19;129896;-38
2022/07/03 10:49:02;;;;;;;26.42;3.03;;;;;;;25.12;54.28;99605.06;7309141;19;129049;-37
2022/07/03 10:51:49;;;;;;;40.97;4.10;;;;;;;25.11;51.74;99598.16;7308314;19;129189;-38
2022/07/03 10:54:31;;;;;;;32.55;3.63;;;;;;;25.10;54.08;99593.88;7309711;19;130488;-38
2022/07/03 10:57:02;;;;;;;31.15;3.67;;;;;;;25.11;52.45;99591.09;7308667;19;130225;-38
2022/07/03 10:59:45;;;;;;;47.72;4.90;;;;;;;25.10;53.35;99589.44;7306472;19;130730;-38
2022/07/03 11:02:26;;;;;;;14.98;2.33;;;;;;;25.11;53.55;99591.09;7306953;19;130683;-38
2022/07/03 11:07:23;;;;;;;17.38;2.38;;;;;;;25.12;51.48;99586.66;7305643;19;129340;-38
2022/07/03 11:10:10;;;;;;;79.70;8.10;;;;;;;25.13;53.89;99583.03;7304144;19;131382;-38
2022/07/03 11:13:07;;;;;;;22.13;2.77;;;;;;;25.15;54.11;99581.91;7306313;19;129774;-38
2022/07/03 11:15:51;;;;;;;58.10;5.75;;;;;;;25.13;54.67;99589.13;7306206;19;130520;-38
2022/07/03 11:18:34;;;;;;;21.33;2.65;;;;;;;25.11;51.57;99569.19;7308776;19;130886;-38
2022/07/03 11:21:13;;;;;;;85.93;8.75;;;;;;;25.13;54.28;99580.41;7304490;19;129572;-38
2022/07/03 11:23:57;;;;;;;29.25;3.30;;;;;;;25.03;54.81;99550.78;7308108;19;129736;-38
2022/07/03 11:26:23;;;;;;;9.07;1.60;;;;;;;25.11;51.68;99569.19;7308491;19;130256;-38
2022/07/03 11:28:53;;;;;;;34.97;3.67;;;;;;;25.10;52.54;99568.41;7304634;19;129311;-38
2022/07/03 11:31:21;;;;;;;25.67;2.95;;;;;;;25.10;52.03;99557.88;7306963;19;128908;-38
2022/07/03 11:33:55;;;;;;;20.15;2.50;;;;;;;25.11;53.42;99561.31;7306307;19;129926;-42
2022/07/03 11:36:25;;;;;;;21.30;2.58;;;;;;;25.14;52.06;99553.13;7309167;19;131032;-38
2022/07/03 11:39:04;;;;;;;27.52;3.15;;;;;;;25.12;50.83;99555.09;7305777;19;130258;-38
2022/07/03 11:41:35;;;;;;;23.20;2.55;;;;;;;25.11;52.70;99556.03;7306641;19;129506;-38